createdAt,value
2019-01-09T00:01:16.438Z,98138.95
2019-01-09T00:03:44.520Z,98132.78
2019-01-09T00:06:12.678Z,98137.30
2019-01-09T00:08:40.735Z,98139.13
2019-01-09T00:11:09.352Z,98137.05
2019-01-09T00:13:38.014Z,98133.23
2019-01-09T00:16:06.834Z,98132.14
2019-01-09T00:18:34.864Z,98139.18
2019-01-09T00:21:02.858Z,98146.39
2019-01-09T00:23:31.198Z,98145.11
2019-01-09T00:25:59.605Z,98134.34
2019-01-09T00:28:28.089Z,98120.39
2019-01-09T00:30:56.139Z,98137.91
2019-01-09T00:33:24.277Z,98143.94
2019-01-09T00:35:52.709Z,98122.97
2019-01-09T00:38:21.015Z,98108.65
2019-01-09T00:40:49.374Z,98104.20
2019-01-09T00:43:18.254Z,98105.41
2019-01-09T00:45:46.638Z,98107.42
2019-01-09T00:48:14.727Z,98103.23
2019-01-09T00:50:42.803Z,98092.66
2019-01-09T00:53:10.902Z,98099.38
2019-01-09T00:55:39.213Z,98094.12
2019-01-09T00:58:07.532Z,98112.41
2019-01-09T01:00:35.770Z,98106.30
2019-01-09T01:03:28.756Z,98116.88
2019-01-09T01:06:07.968Z,98119.11
2019-01-09T01:08:46.559Z,98119.02
2019-01-09T01:11:24.349Z,98118.05
2019-01-09T01:14:11.386Z,98117.60
2019-01-09T01:17:11.237Z,98130.39
2019-01-09T01:20:16.841Z,98119.77
2019-01-09T01:23:03.935Z,98125.36
2019-01-09T01:25:50.740Z,98124.59
2019-01-09T01:28:46.650Z,98111.93
2019-01-09T01:31:21.854Z,98117.71
2019-01-09T01:34:12.259Z,98088.59
2019-01-09T01:37:02.282Z,98071.75
2019-01-09T01:39:49.405Z,98075.96
2019-01-09T01:42:55.091Z,98081.66
2019-01-09T01:45:35.972Z,98088.73
2019-01-09T01:48:35.278Z,98093.00
2019-01-09T01:51:37.523Z,98068.69
2019-01-09T01:54:10.044Z,98077.03
2019-01-09T01:57:16.104Z,98088.80
2019-01-09T02:00:09.867Z,98094.45
2019-01-09T02:02:46.234Z,98101.10
2019-01-09T02:05:32.682Z,98095.56
2019-01-09T02:08:23.240Z,98092.00
2019-01-09T02:11:22.728Z,98077.30
2019-01-09T02:13:57.379Z,98080.77
2019-01-09T02:16:50.778Z,98073.76
2019-01-09T02:19:21.144Z,98074.19
2019-01-09T02:22:17.707Z,98078.97
2019-01-09T02:25:08.517Z,98081.52
2019-01-09T02:27:39.956Z,98070.55
2019-01-09T02:30:40.000Z,98069.75
2019-01-09T02:33:08.459Z,98068.67
2019-01-09T02:35:37.146Z,98087.05
2019-01-09T02:38:05.184Z,98087.97
2019-01-09T02:40:33.606Z,98074.07
2019-01-09T02:43:01.993Z,98070.17
2019-01-09T02:45:30.362Z,98054.54
2019-01-09T02:47:58.391Z,98066.19
2019-01-09T02:50:26.913Z,98068.83
2019-01-09T02:52:54.947Z,98066.34
2019-01-09T02:55:23.417Z,98072.92
2019-01-09T02:57:56.876Z,98057.59
2019-01-09T03:00:21.972Z,98057.25
2019-01-09T03:02:50.006Z,98055.44
2019-01-09T03:05:18.172Z,98046.73
2019-01-09T03:07:46.234Z,98053.16
2019-01-09T03:13:24.306Z,98043.27
2019-01-09T03:15:52.332Z,98040.53
2019-01-09T03:18:20.407Z,98040.84
2019-01-09T03:20:48.470Z,98032.08
2019-01-09T03:23:16.852Z,98027.13
2019-01-09T03:25:45.007Z,98027.43
2019-01-09T03:28:13.266Z,98028.83
2019-01-09T03:30:41.848Z,98028.81
2019-01-09T03:33:09.939Z,98014.31
2019-01-09T03:35:37.991Z,98031.66
2019-01-09T03:38:06.050Z,98018.92
2019-01-09T03:40:34.128Z,98022.88
2019-01-09T03:43:02.404Z,98019.07
2019-01-09T03:45:30.609Z,98021.36
2019-01-09T03:47:59.422Z,98023.70
2019-01-09T03:50:27.745Z,98030.59
2019-01-09T03:52:55.871Z,98023.16
2019-01-09T03:55:24.707Z,98015.37
2019-01-09T03:57:52.878Z,98015.08
2019-01-09T04:00:20.931Z,98020.67
2019-01-09T04:02:49.025Z,98009.89
2019-01-09T04:05:17.067Z,98004.20
2019-01-09T04:07:45.338Z,97999.93
2019-01-09T04:10:13.399Z,98009.98
2019-01-09T04:12:41.461Z,98020.89
2019-01-09T04:15:09.714Z,98002.56
2019-01-09T04:17:38.016Z,98003.91
2019-01-09T04:20:06.942Z,97998.73
2019-01-09T04:22:35.315Z,97998.35
2019-01-09T04:25:03.548Z,97989.17
2019-01-09T04:27:31.879Z,97986.20
2019-01-09T04:30:00.806Z,97983.35
2019-01-09T04:32:29.254Z,97984.33
2019-01-09T04:34:58.049Z,97977.77
2019-01-09T04:37:26.446Z,97979.94
2019-01-09T04:39:54.510Z,97984.26
2019-01-09T04:42:22.723Z,97983.42
2019-01-09T04:44:50.891Z,97979.87
2019-01-09T04:47:19.216Z,97976.33
2019-01-09T04:49:47.276Z,97972.46
2019-01-09T04:52:16.161Z,97976.24
2019-01-09T04:54:44.333Z,97977.16
2019-01-09T04:57:12.600Z,97975.36
2019-01-09T04:59:41.113Z,97961.16
2019-01-09T05:02:09.220Z,97971.13
2019-01-09T05:04:37.289Z,97949.69
2019-01-09T05:07:05.502Z,97964.14
2019-01-09T05:09:33.645Z,97968.09
2019-01-09T05:12:01.693Z,97963.97
2019-01-09T05:14:30.432Z,97948.52
2019-01-09T05:16:59.148Z,97960.52
2019-01-09T05:19:27.657Z,97952.66
2019-01-09T05:21:55.769Z,97954.72
2019-01-09T05:24:24.218Z,97949.56
2019-01-09T05:26:52.287Z,97952.97
2019-01-09T05:29:20.428Z,97959.05
2019-01-09T05:31:48.540Z,97945.94
2019-01-09T05:34:16.695Z,97947.72
2019-01-09T05:36:44.886Z,97945.55
2019-01-09T05:39:13.219Z,97970.87
2019-01-09T05:41:41.563Z,97955.19
2019-01-09T05:44:09.822Z,97955.00
2019-01-09T05:46:37.942Z,97954.44
2019-01-09T05:49:06.170Z,97947.36
2019-01-09T05:51:34.603Z,97949.11
2019-01-09T05:54:02.803Z,97944.36
2019-01-09T05:56:31.283Z,97949.16
2019-01-09T05:59:00.048Z,97948.25
2019-01-09T06:01:28.381Z,97941.22
2019-01-09T06:03:56.489Z,97953.02
2019-01-09T06:06:24.605Z,97963.06
2019-01-09T06:08:52.966Z,97949.58
2019-01-09T06:11:21.187Z,97945.27
2019-01-09T06:13:49.559Z,97944.74
2019-01-09T06:16:17.651Z,97945.08
2019-01-09T06:18:46.055Z,97958.70
2019-01-09T06:21:14.338Z,97963.19
2019-01-09T06:23:42.347Z,97967.45
2019-01-09T06:26:10.421Z,97984.86
2019-01-09T06:28:38.694Z,97981.98
2019-01-09T06:31:07.006Z,97974.55
2019-01-09T06:33:35.067Z,97976.42
2019-01-09T06:36:04.016Z,97986.38
2019-01-09T06:38:32.275Z,97982.11
2019-01-09T06:41:00.647Z,97982.03
2019-01-09T06:43:28.801Z,97986.41
2019-01-09T06:45:57.201Z,97996.42
2019-01-09T06:48:25.288Z,98001.27
2019-01-09T06:50:53.413Z,98004.36
2019-01-09T06:53:21.879Z,98002.50
2019-01-09T06:55:50.021Z,98008.69
2019-01-09T06:58:20.227Z,98006.08
2019-01-09T07:00:48.174Z,98013.54
2019-01-09T07:03:16.978Z,98017.45
2019-01-09T07:05:45.540Z,98020.07
2019-01-09T07:08:13.859Z,98013.48
2019-01-09T07:10:42.267Z,98016.50
2019-01-09T07:13:10.586Z,98018.66
2019-01-09T07:15:38.745Z,98021.77
2019-01-09T07:18:06.806Z,98021.31
2019-01-09T07:20:34.859Z,98024.32
2019-01-09T07:23:02.906Z,98022.60
2019-01-09T07:25:30.951Z,98025.19
2019-01-09T07:27:59.025Z,98036.40
2019-01-09T07:30:27.404Z,98023.36
2019-01-09T07:32:55.518Z,98022.38
2019-01-09T07:35:23.596Z,98032.02
2019-01-09T07:37:52.134Z,98022.83
2019-01-09T07:40:20.187Z,98022.41
2019-01-09T07:42:48.269Z,98013.70
2019-01-09T07:45:16.303Z,98025.52
2019-01-09T07:47:45.051Z,98022.94
2019-01-09T07:50:13.402Z,98028.98
2019-01-09T07:52:41.481Z,98015.98
2019-01-09T07:55:09.754Z,98024.11
2019-01-09T07:57:37.794Z,98025.95
2019-01-09T08:00:08.474Z,98028.62
2019-01-09T08:02:39.325Z,98035.03
2019-01-09T08:05:08.400Z,98031.61
2019-01-09T08:07:37.516Z,98038.43
2019-01-09T08:10:08.296Z,98036.13
2019-01-09T08:12:37.370Z,98040.11
2019-01-09T08:15:07.341Z,98038.83
2019-01-09T08:17:36.403Z,98041.84
2019-01-09T08:20:06.070Z,98032.30
2019-01-09T08:22:35.882Z,98034.06
2019-01-09T08:25:05.014Z,98045.76
2019-01-09T08:27:34.679Z,98040.09
2019-01-09T08:30:03.974Z,98034.42
2019-01-09T08:32:33.407Z,98038.78
2019-01-09T08:35:01.742Z,98042.28
2019-01-09T08:37:31.153Z,98044.44
2019-01-09T08:40:00.409Z,98040.08
2019-01-09T08:42:29.572Z,98043.11
2019-01-09T08:44:58.689Z,98044.80
2019-01-09T08:47:27.107Z,98048.70
2019-01-09T08:49:55.639Z,98050.05
2019-01-09T08:52:24.654Z,98054.80
2019-01-09T08:54:54.011Z,98058.63
2019-01-09T08:57:23.052Z,98069.17
2019-01-09T08:59:52.133Z,98067.36
2019-01-09T09:02:21.337Z,98076.09
2019-01-09T09:04:50.413Z,98080.87
2019-01-09T09:07:21.482Z,98082.23
2019-01-09T09:09:51.145Z,98090.89
2019-01-09T09:12:19.243Z,98090.88
2019-01-09T09:14:47.278Z,98100.48
2019-01-09T09:17:15.743Z,98083.50
2019-01-09T09:19:43.797Z,98100.89
2019-01-09T09:22:11.943Z,98100.44
2019-01-09T09:24:41.495Z,98098.26
2019-01-09T09:27:09.634Z,98104.31
2019-01-09T09:29:37.677Z,98111.31
2019-01-09T09:32:05.807Z,98115.66
2019-01-09T09:34:33.853Z,98109.15
2019-01-09T09:37:01.890Z,98122.11
2019-01-09T09:39:30.552Z,98114.34
2019-01-09T09:41:58.685Z,98122.61
2019-01-09T09:44:26.987Z,98108.21
2019-01-09T09:46:55.411Z,98122.97
2019-01-09T09:49:23.959Z,98126.38
2019-01-09T09:51:52.003Z,98130.81
2019-01-09T09:54:20.031Z,98134.58
2019-01-09T09:56:48.059Z,98128.03
2019-01-09T09:59:16.145Z,98127.20
2019-01-09T10:01:44.219Z,98136.80
2019-01-09T10:04:12.340Z,98142.45
2019-01-09T10:06:40.491Z,98137.64
2019-01-09T10:09:09.841Z,98131.01
2019-01-09T10:11:38.241Z,98136.33
2019-01-09T10:14:06.790Z,98141.30
2019-01-09T10:16:35.032Z,98146.99
2019-01-09T10:19:03.136Z,98144.02
2019-01-09T10:21:31.238Z,98139.34
2019-01-09T10:23:59.293Z,98131.39
2019-01-09T10:26:27.363Z,98131.77
2019-01-09T10:28:55.440Z,98139.19
2019-01-09T10:31:23.456Z,98127.91
2019-01-09T10:33:51.785Z,98123.44
2019-01-09T10:36:20.078Z,98123.73
2019-01-09T10:38:48.135Z,98130.97
2019-01-09T10:41:16.258Z,98122.33
2019-01-09T10:43:44.347Z,98118.01
2019-01-09T10:46:12.420Z,98120.16
2019-01-09T10:48:40.481Z,98118.91
2019-01-09T10:51:08.476Z,98117.12
2019-01-09T10:53:36.803Z,98117.50
2019-01-09T10:56:05.364Z,98114.38
2019-01-09T10:58:33.518Z,98109.64
2019-01-09T11:01:01.685Z,98117.48
2019-01-09T11:03:30.112Z,98117.47
2019-01-09T11:05:58.142Z,98113.67
2019-01-09T11:08:26.210Z,98119.23
2019-01-09T11:10:54.635Z,98127.52
2019-01-09T11:13:23.094Z,98118.03
2019-01-09T11:15:51.485Z,98107.05
2019-01-09T11:18:19.861Z,98110.56
2019-01-09T11:20:48.003Z,98111.37
2019-01-09T11:23:16.137Z,98114.87
2019-01-09T11:25:44.305Z,98110.57
2019-01-09T11:28:12.660Z,98109.72
2019-01-09T11:30:40.768Z,98099.67
2019-01-09T11:33:09.133Z,98104.74
2019-01-09T11:35:37.176Z,98094.43
2019-01-09T11:38:05.851Z,98090.41
2019-01-09T11:40:34.148Z,98080.48
2019-01-09T11:43:03.717Z,98090.06
2019-01-09T11:45:31.956Z,98093.95
2019-01-09T11:47:59.986Z,98084.86
2019-01-09T11:50:28.026Z,98083.17
2019-01-09T11:52:56.453Z,98084.14
2019-01-09T11:55:24.492Z,98078.67
2019-01-09T11:57:52.554Z,98086.97
2019-01-09T12:00:21.843Z,98075.22
2019-01-09T12:02:51.495Z,98068.17
2019-01-09T12:05:19.555Z,98078.05
2019-01-09T12:07:48.058Z,98081.05
2019-01-09T12:10:16.611Z,98078.39
2019-01-09T12:12:45.024Z,98079.41
2019-01-09T12:15:13.900Z,98079.22
2019-01-09T12:17:42.018Z,98086.73
2019-01-09T12:20:10.858Z,98082.76
2019-01-09T12:22:39.247Z,98070.73
2019-01-09T12:25:08.307Z,98072.70
2019-01-09T12:27:36.396Z,98069.44
2019-01-09T12:30:05.518Z,98065.52
2019-01-09T12:32:33.915Z,98063.32
2019-01-09T12:35:02.275Z,98064.82
2019-01-09T12:37:30.591Z,98059.80
2019-01-09T12:40:00.316Z,98058.50
2019-01-09T12:42:29.425Z,98057.10
2019-01-09T12:44:59.271Z,98061.33
2019-01-09T12:47:27.590Z,98060.47
2019-01-09T12:49:55.732Z,98054.25
2019-01-09T12:52:24.880Z,98055.80
2019-01-09T12:54:53.600Z,98061.95
2019-01-09T12:57:23.857Z,98057.45
2019-01-09T12:59:52.064Z,98050.71
2019-01-09T13:02:20.271Z,98051.02
2019-01-09T13:04:48.991Z,98065.28
2019-01-09T13:07:17.455Z,98070.89
2019-01-09T13:09:45.634Z,98071.02
2019-01-09T13:12:14.395Z,98090.31
2019-01-09T13:14:42.879Z,98094.22
2019-01-09T13:17:12.112Z,98086.84
2019-01-09T13:19:40.412Z,98085.90
2019-01-09T13:22:08.433Z,98082.27
2019-01-09T13:24:36.576Z,98086.55
2019-01-09T13:27:04.974Z,98086.54
2019-01-09T13:29:33.091Z,98086.31
2019-01-09T13:32:01.120Z,98086.64
2019-01-09T13:34:29.999Z,98081.36
2019-01-09T13:36:58.161Z,98085.44
2019-01-09T13:39:30.896Z,98086.08
2019-01-09T13:41:56.488Z,98099.38
2019-01-09T13:44:24.657Z,98096.55
2019-01-09T13:46:52.980Z,98098.05
2019-01-09T13:49:33.407Z,98101.59
2019-01-09T13:52:02.086Z,98114.69
2019-01-09T13:54:30.216Z,98111.19
2019-01-09T13:56:58.346Z,98109.75
2019-01-09T13:59:26.652Z,98100.67
2019-01-09T14:01:55.191Z,98104.78
2019-01-09T14:04:23.983Z,98109.45
2019-01-09T14:06:52.457Z,98095.45
2019-01-09T14:09:20.851Z,98100.61
2019-01-09T14:11:48.914Z,98096.32
2019-01-09T14:14:16.956Z,98105.45
2019-01-09T14:16:45.460Z,98096.70
2019-01-09T14:19:13.646Z,98098.48
2019-01-09T14:21:42.124Z,98099.38
2019-01-09T14:24:10.275Z,98114.91
2019-01-09T14:26:38.324Z,98116.53
2019-01-09T14:29:06.468Z,98114.61
2019-01-09T14:31:34.506Z,98130.15
2019-01-09T14:34:02.585Z,98123.87
2019-01-09T14:36:30.942Z,98120.77
2019-01-09T14:39:00.220Z,98127.69
2019-01-09T14:41:28.623Z,98136.92
2019-01-09T14:43:56.863Z,98143.78
2019-01-09T14:46:25.749Z,98142.42
2019-01-09T14:48:54.302Z,98146.84
2019-01-09T14:51:22.600Z,98147.41
2019-01-09T14:53:50.848Z,98149.09
2019-01-09T14:56:19.311Z,98152.72
2019-01-09T14:58:47.636Z,98157.02
2019-01-09T15:01:15.685Z,98161.73
2019-01-09T15:03:44.211Z,98163.64
2019-01-09T15:06:12.319Z,98159.34
2019-01-09T15:08:41.098Z,98163.27
2019-01-09T15:11:09.596Z,98172.95
2019-01-09T15:13:38.113Z,98177.20
2019-01-09T15:16:06.258Z,98180.27
2019-01-09T15:18:34.445Z,98192.17
2019-01-09T15:21:02.787Z,98188.67
2019-01-09T15:23:31.283Z,98193.08
2019-01-09T15:26:04.451Z,98208.72
2019-01-09T15:28:33.159Z,98207.00
2019-01-09T15:31:01.686Z,98212.22
2019-01-09T15:33:29.786Z,98213.53
2019-01-09T15:35:58.295Z,98220.92
2019-01-09T15:38:26.970Z,98225.27
2019-01-09T15:40:54.988Z,98222.65
2019-01-09T15:43:23.418Z,98226.99
2019-01-09T15:45:51.475Z,98226.11
2019-01-09T15:48:19.675Z,98218.73
2019-01-09T15:50:48.058Z,98228.66
2019-01-09T15:53:16.294Z,98228.66
2019-01-09T15:55:44.511Z,98225.63
2019-01-09T15:58:12.810Z,98232.16
2019-01-09T16:00:42.520Z,98230.00
2019-01-09T16:03:10.538Z,98234.35
2019-01-09T16:05:39.044Z,98234.76
2019-01-09T16:08:25.180Z,98242.14
2019-01-09T16:10:54.142Z,98243.33
2019-01-09T16:13:22.508Z,98249.04
2019-01-09T16:15:50.538Z,98248.58
2019-01-09T16:18:19.222Z,98254.67
2019-01-09T16:20:47.346Z,98254.59
2019-01-09T16:23:15.444Z,98252.20
2019-01-09T16:25:43.564Z,98261.28
2019-01-09T16:28:12.183Z,98264.80
2019-01-09T16:30:52.095Z,98267.87
2019-01-09T16:33:23.058Z,98272.20
2019-01-09T16:35:50.366Z,98273.48
2019-01-09T16:38:18.689Z,98281.31
2019-01-09T16:40:47.033Z,98285.22
2019-01-09T16:43:15.057Z,98283.52
2019-01-09T16:45:43.129Z,98281.73
2019-01-09T16:48:11.155Z,98283.45
2019-01-09T16:50:39.347Z,98295.70
2019-01-09T16:53:07.626Z,98296.56
2019-01-09T16:55:35.672Z,98297.84
2019-01-09T16:58:03.960Z,98297.80
2019-01-09T17:00:32.207Z,98304.35
2019-01-09T17:03:00.257Z,98299.47
2019-01-09T17:05:28.299Z,98295.91
2019-01-09T17:07:56.592Z,98303.00
2019-01-09T17:10:32.235Z,98302.91
2019-01-09T17:12:54.323Z,98303.82
2019-01-09T17:15:22.398Z,98303.71
2019-01-09T17:17:50.909Z,98311.05
2019-01-09T17:20:19.554Z,98313.30
2019-01-09T17:22:47.913Z,98316.37
2019-01-09T17:25:15.972Z,98322.86
2019-01-09T17:27:44.050Z,98319.42
2019-01-09T17:30:15.513Z,98328.61
2019-01-09T17:32:44.171Z,98324.64
2019-01-09T17:35:12.674Z,98323.27
2019-01-09T17:37:40.887Z,98331.06
2019-01-09T17:40:09.934Z,98329.30
2019-01-09T17:42:38.332Z,98327.67
2019-01-09T17:45:07.153Z,98336.76
2019-01-09T17:47:35.261Z,98337.66
2019-01-09T17:50:04.727Z,98336.76
2019-01-09T17:52:32.888Z,98343.23
2019-01-09T17:55:00.910Z,98337.05
2019-01-09T17:57:29.116Z,98341.58
2019-01-09T17:59:57.165Z,98341.48
2019-01-09T18:02:25.621Z,98345.42
2019-01-09T18:04:54.001Z,98343.77
2019-01-09T18:07:22.087Z,98340.30
2019-01-09T18:09:50.556Z,98351.00
2019-01-09T18:12:18.707Z,98351.44
2019-01-09T18:14:46.882Z,98351.09
2019-01-09T18:17:15.094Z,98353.52
2019-01-09T18:19:43.160Z,98357.25
2019-01-09T18:22:11.635Z,98359.44
2019-01-09T18:24:39.770Z,98368.03
2019-01-09T18:27:07.777Z,98369.28
2019-01-09T18:29:35.935Z,98368.92
2019-01-09T18:32:07.834Z,98370.97
2019-01-09T18:34:37.954Z,98377.99
2019-01-09T18:37:17.244Z,98376.83
2019-01-09T18:40:00.519Z,98377.95
2019-01-09T18:42:35.129Z,98380.66
2019-01-09T18:45:10.162Z,98385.70
2019-01-09T18:47:57.312Z,98380.30
2019-01-09T18:50:47.766Z,98391.45
2019-01-09T18:53:50.086Z,98387.58
2019-01-09T18:56:18.338Z,98389.52
2019-01-09T18:58:46.440Z,98386.03
2019-01-09T19:01:14.814Z,98390.71
2019-01-09T19:03:43.248Z,98385.24
2019-01-09T19:06:11.288Z,98384.27
2019-01-09T19:08:39.330Z,98392.02
2019-01-09T19:11:08.106Z,98399.11
2019-01-09T19:13:36.562Z,98398.78
2019-01-09T19:16:05.534Z,98399.70
2019-01-09T19:18:33.899Z,98401.04
2019-01-09T19:21:01.942Z,98404.84
2019-01-09T19:23:30.066Z,98407.39
2019-01-09T19:25:58.490Z,98414.36
2019-01-09T19:28:26.902Z,98408.86
2019-01-09T19:30:55.423Z,98413.16
2019-01-09T19:33:23.982Z,98418.07
2019-01-09T19:35:52.889Z,98421.05
2019-01-09T19:38:21.473Z,98427.14
2019-01-09T19:40:49.952Z,98425.81
2019-01-09T19:43:18.034Z,98427.20
2019-01-09T19:45:46.150Z,98432.02
2019-01-09T19:48:15.005Z,98433.32
2019-01-09T19:50:43.011Z,98444.95
2019-01-09T19:53:11.055Z,98439.78
2019-01-09T19:55:39.445Z,98448.67
2019-01-09T19:58:07.677Z,98445.67
2019-01-09T20:00:36.058Z,98453.98
2019-01-09T20:03:04.140Z,98450.94
2019-01-09T20:05:32.725Z,98452.17
2019-01-09T20:08:00.931Z,98451.72
2019-01-09T20:10:29.077Z,98457.44
2019-01-09T20:12:57.593Z,98456.61
2019-01-09T20:15:26.154Z,98457.70
2019-01-09T20:17:54.252Z,98459.11
2019-01-09T20:20:22.331Z,98456.95
2019-01-09T20:22:51.276Z,98457.33
2019-01-09T20:25:19.707Z,98457.14
2019-01-09T20:27:47.992Z,98455.86
2019-01-09T20:30:20.977Z,98460.78
2019-01-09T20:32:49.784Z,98460.73
2019-01-09T20:35:18.278Z,98463.14
2019-01-09T20:37:46.519Z,98468.87
2019-01-09T20:40:15.434Z,98469.98
2019-01-09T20:42:43.797Z,98473.41
2019-01-09T20:45:12.172Z,98469.13
2019-01-09T20:47:40.511Z,98473.95
2019-01-09T20:50:10.703Z,98468.84
2019-01-09T20:52:39.196Z,98467.47
2019-01-09T20:55:07.979Z,98466.56
2019-01-09T20:57:36.125Z,98471.38
2019-01-09T21:00:05.997Z,98467.47
2019-01-09T21:02:34.272Z,98472.19
2019-01-09T21:05:02.631Z,98467.41
2019-01-09T21:07:30.754Z,98471.38
2019-01-09T21:09:58.818Z,98474.47
2019-01-09T21:12:27.541Z,98479.91
2019-01-09T21:14:56.331Z,98475.97
2019-01-09T21:17:24.509Z,98476.87
2019-01-09T21:19:54.239Z,98480.44
2019-01-09T21:22:22.653Z,98481.72
2019-01-09T21:24:51.563Z,98481.64
2019-01-09T21:27:20.233Z,98486.98
2019-01-09T21:29:48.542Z,98494.69
2019-01-09T21:32:17.235Z,98491.66
2019-01-09T21:34:45.354Z,98493.88
2019-01-09T21:37:13.422Z,98498.55
2019-01-09T21:39:42.060Z,98502.62
2019-01-09T21:42:10.298Z,98497.94
2019-01-09T21:44:39.120Z,98504.77
2019-01-09T21:47:07.526Z,98504.73
2019-01-09T21:49:36.090Z,98501.63
2019-01-09T21:52:04.586Z,98506.14
2019-01-09T21:54:33.659Z,98509.95
2019-01-09T21:57:02.075Z,98509.14
2019-01-09T21:59:30.447Z,98511.88
2019-01-09T22:01:58.907Z,98516.83
2019-01-09T22:04:27.695Z,98522.02
2019-01-09T22:06:56.004Z,98523.80
2019-01-09T22:09:24.240Z,98527.56
2019-01-09T22:11:52.468Z,98535.17
2019-01-09T22:14:21.416Z,98533.95
2019-01-09T22:16:49.794Z,98533.05
2019-01-09T22:19:18.799Z,98532.72
2019-01-09T22:21:47.158Z,98542.91
2019-01-09T22:24:15.610Z,98537.95
2019-01-09T22:26:44.034Z,98532.81
2019-01-09T22:29:12.078Z,98538.45
2019-01-09T22:31:40.366Z,98536.89
2019-01-09T22:34:08.413Z,98540.92
2019-01-09T22:36:36.480Z,98543.84
2019-01-09T22:39:06.146Z,98550.21
2019-01-09T22:41:34.819Z,98556.58
2019-01-09T22:44:05.428Z,98558.80
2019-01-09T22:46:33.310Z,98556.70
2019-01-09T22:49:01.440Z,98561.50
2019-01-09T22:51:29.807Z,98559.05
2019-01-09T22:53:58.265Z,98566.86
2019-01-09T22:56:26.320Z,98570.36
2019-01-09T22:58:54.350Z,98570.04
2019-01-09T23:01:23.661Z,98568.27
2019-01-09T23:03:52.422Z,98565.78
2019-01-09T23:06:20.580Z,98561.73
2019-01-09T23:08:48.922Z,98557.62
2019-01-09T23:11:16.919Z,98552.72
2019-01-09T23:13:45.047Z,98553.42
2019-01-09T23:16:13.186Z,98554.53
2019-01-09T23:18:41.716Z,98554.63
2019-01-09T23:21:10.212Z,98563.49
2019-01-09T23:23:38.882Z,98559.05
2019-01-09T23:26:07.231Z,98562.52
2019-01-09T23:28:35.312Z,98570.43
2019-01-09T23:31:03.976Z,98573.13
2019-01-09T23:33:32.322Z,98562.22
2019-01-09T23:36:00.396Z,98558.24
2019-01-09T23:38:28.405Z,98565.52
2019-01-09T23:40:56.827Z,98564.13
2019-01-09T23:43:24.971Z,98562.14
2019-01-09T23:45:52.998Z,98562.10
2019-01-09T23:48:21.024Z,98562.55
2019-01-09T23:50:49.053Z,98560.83
2019-01-09T23:53:17.206Z,98568.35
2019-01-09T23:55:45.297Z,98565.09
2019-01-09T23:58:13.453Z,98573.36
